Time;durP1;ratioP1;P1;durP2;ratioP2;P2;SDS_P1;SDS_P2;PMS_P1;PMS_P2;Temp;Humidity;BMP_temperature;BMP_pressure;BME280_temperature;BME280_humidity;BME280_pressure;Samples;Min_cycle;Max_cycle;Signal;HPM_P1;HPM_P2
2023/12/19 00:00:46;;;;;;;86.85;30.45;;;7.40;99.90;;;;;;5047270;28;20039;-65
2023/12/19 00:03:12;;;;;;;86.35;32.00;;;7.30;99.90;;;;;;5031114;28;20033;-65
2023/12/19 00:05:40;;;;;;;83.90;28.63;;;7.30;99.90;;;;;;5050541;28;20035;-65
2023/12/19 00:08:07;;;;;;;85.20;29.27;;;7.40;99.90;;;;;;5050587;28;20060;-66
2023/12/19 00:10:32;;;;;;;79.90;28.05;;;7.30;99.90;;;;;;5037117;28;20491;-66
2023/12/19 00:12:58;;;;;;;72.30;27.67;;;7.30;99.90;;;;;;5043022;28;20044;-68
2023/12/19 00:15:23;;;;;;;80.45;30.10;;;7.30;99.90;;;;;;5050177;28;20045;-67
2023/12/19 00:17:49;;;;;;;82.63;31.88;;;7.30;99.90;;;;;;5050154;28;20044;-66
2023/12/19 00:20:15;;;;;;;92.70;32.72;;;7.30;99.90;;;;;;5041525;28;20752;-65
2023/12/19 00:22:40;;;;;;;84.28;30.95;;;7.30;99.90;;;;;;5042353;28;20035;-66
2023/12/19 00:25:06;;;;;;;70.18;25.75;;;7.30;99.90;;;;;;5050076;28;20047;-68
2023/12/19 00:27:32;;;;;;;68.18;25.48;;;7.30;99.90;;;;;;5047070;28;20029;-67
2023/12/19 00:29:57;;;;;;;71.65;27.55;;;7.40;99.90;;;;;;5048422;28;20037;-68
2023/12/19 00:32:23;;;;;;;72.28;26.67;;;7.40;99.90;;;;;;5049738;28;20082;-66
2023/12/19 00:34:48;;;;;;;74.07;26.45;;;7.40;99.90;;;;;;5050620;28;20040;-64
2023/12/19 00:37:14;;;;;;;76.40;28.52;;;7.40;99.90;;;;;;5042883;28;20034;-64
2023/12/19 00:39:39;;;;;;;63.72;24.10;;;7.40;99.90;;;;;;5050817;28;20033;-65
2023/12/19 00:42:05;;;;;;;70.07;27.13;;;7.40;99.90;;;;;;5054180;28;20045;-65
2023/12/19 00:44:30;;;;;;;70.22;27.75;;;7.40;99.90;;;;;;5042292;28;20025;-65
2023/12/19 00:46:56;;;;;;;68.10;28.52;;;7.40;99.90;;;;;;5053498;28;20045;-66
2023/12/19 00:49:21;;;;;;;64.97;23.52;;;7.40;99.90;;;;;;5053861;28;20187;-66
2023/12/19 00:51:47;;;;;;;59.33;23.48;;;7.40;99.90;;;;;;5054282;28;20139;-67
2023/12/19 00:54:13;;;;;;;56.58;23.02;;;7.30;99.90;;;;;;5040184;28;20038;-65
2023/12/19 00:56:42;;;;;;;44.13;20.35;;;7.40;99.90;;;;;;5047653;28;20036;-65
2023/12/19 00:59:07;;;;;;;61.33;25.58;;;7.30;99.90;;;;;;5053756;28;20094;-66
2023/12/19 01:01:33;;;;;;;62.90;25.40;;;7.30;99.90;;;;;;5046611;28;20391;-65
2023/12/19 01:03:59;;;;;;;65.68;27.52;;;7.30;99.90;;;;;;5053406;28;20044;-67
2023/12/19 01:06:24;;;;;;;59.65;23.13;;;7.30;99.90;;;;;;5053785;28;20041;-67
2023/12/19 01:08:50;;;;;;;64.20;26.45;;;7.30;99.90;;;;;;5045704;28;20036;-66
2023/12/19 01:11:15;;;;;;;66.15;28.75;;;7.30;99.90;;;;;;5033680;28;20087;-66
2023/12/19 01:13:41;;;;;;;55.17;22.88;;;7.30;99.90;;;;;;5053601;28;20549;-67
2023/12/19 01:16:07;;;;;;;66.53;27.95;;;7.30;99.90;;;;;;5049910;28;20502;-65
2023/12/19 01:18:33;;;;;;;68.03;27.00;;;7.30;99.90;;;;;;5048644;28;20056;-65
2023/12/19 01:20:59;;;;;;;52.72;23.33;;;7.30;99.90;;;;;;5053170;28;20037;-65
2023/12/19 01:23:25;;;;;;;65.82;27.52;;;7.30;99.90;;;;;;5053468;28;20048;-66
2023/12/19 01:25:51;;;;;;;53.17;26.38;;;7.30;99.90;;;;;;5048689;28;20094;-65
2023/12/19 01:28:16;;;;;;;57.03;22.73;;;7.20;99.90;;;;;;5048735;28;20454;-68
2023/12/19 01:30:42;;;;;;;53.15;20.67;;;7.30;99.90;;;;;;5052773;28;20037;-66
2023/12/19 01:33:08;;;;;;;50.47;22.60;;;7.20;99.90;;;;;;5048070;28;20124;-64
2023/12/19 01:35:35;;;;;;;45.78;21.17;;;7.20;99.90;;;;;;5045301;28;20645;-66
2023/12/19 01:38:00;;;;;;;54.10;24.48;;;7.20;99.90;;;;;;5034800;28;20049;-66
2023/12/19 01:40:31;;;;;;;59.15;25.55;;;7.20;99.90;;;;;;5051740;28;20128;-63
2023/12/19 01:43:00;;;;;;;59.00;24.37;;;7.20;99.90;;;;;;5051059;28;20037;-66
2023/12/19 01:45:27;;;;;;;53.13;21.35;;;7.20;99.90;;;;;;5052466;28;20044;-68
2023/12/19 01:47:53;;;;;;;55.00;25.27;;;7.20;99.90;;;;;;5053017;28;20132;-66
2023/12/19 01:50:20;;;;;;;47.83;21.58;;;7.20;99.90;;;;;;5023982;28;20543;-71
2023/12/19 01:52:57;;;;;;;55.97;24.80;;;7.20;99.90;;;;;;5045910;28;20479;-65
2023/12/19 01:55:24;;;;;;;63.45;26.05;;;7.20;99.90;;;;;;5052553;28;20047;-65
2023/12/19 01:57:50;;;;;;;48.83;20.50;;;7.20;99.90;;;;;;5052763;28;20086;-66
2023/12/19 02:00:16;;;;;;;51.67;22.17;;;7.20;99.90;;;;;;5042069;28;20659;-66
2023/12/19 02:02:42;;;;;;;52.05;21.50;;;7.20;99.90;;;;;;5052130;28;20082;-66
2023/12/19 02:05:07;;;;;;;48.03;19.88;;;7.20;99.90;;;;;;5052791;28;20041;-66
2023/12/19 02:07:33;;;;;;;57.75;23.52;;;7.20;99.90;;;;;;5043611;28;20025;-66
2023/12/19 02:10:00;;;;;;;55.22;23.42;;;7.20;99.90;;;;;;5051355;28;20037;-65
2023/12/19 02:12:26;;;;;;;43.05;18.75;;;7.20;99.90;;;;;;5051964;28;20037;-67
2023/12/19 02:14:51;;;;;;;54.05;22.73;;;7.20;99.90;;;;;;5048248;28;20033;-67
2023/12/19 02:17:17;;;;;;;45.72;19.75;;;7.20;99.90;;;;;;5047974;28;20029;-67
2023/12/19 02:19:48;;;;;;;50.83;20.67;;;7.20;99.90;;;;;;5052403;28;20396;-68
2023/12/19 02:22:14;;;;;;;50.17;20.05;;;7.20;99.90;;;;;;5050490;28;20114;-64
2023/12/19 02:24:39;;;;;;;48.40;19.58;;;7.20;99.90;;;;;;5047880;28;20578;-68
2023/12/19 02:27:07;;;;;;;54.65;21.95;;;7.20;99.90;;;;;;5030230;28;20522;-66
2023/12/19 02:29:32;;;;;;;43.58;18.30;;;7.20;99.90;;;;;;5044873;28;20100;-66
2023/12/19 02:31:58;;;;;;;51.33;20.63;;;7.20;99.90;;;;;;5052075;28;20134;-67
2023/12/19 02:34:24;;;;;;;50.50;20.92;;;7.20;99.90;;;;;;5051708;28;20041;-67
2023/12/19 02:36:50;;;;;;;47.42;19.92;;;7.20;99.90;;;;;;5048610;28;20051;-65
2023/12/19 02:39:16;;;;;;;55.95;24.35;;;7.20;99.90;;;;;;5041150;28;20038;-66
2023/12/19 02:41:41;;;;;;;47.50;21.30;;;7.20;99.90;;;;;;5051602;28;20480;-66
2023/12/19 02:44:07;;;;;;;50.00;21.60;;;7.20;99.90;;;;;;5051921;28;20098;-68
2023/12/19 02:46:33;;;;;;;43.92;17.80;;;7.20;99.90;;;;;;5039325;28;20032;-66
2023/12/19 02:48:59;;;;;;;32.92;15.45;;;7.20;99.90;;;;;;5051052;28;20483;-66
2023/12/19 02:51:25;;;;;;;45.63;18.25;;;7.20;99.90;;;;;;5051681;28;20103;-65
2023/12/19 02:53:52;;;;;;;47.45;19.83;;;7.20;99.90;;;;;;5042447;28;20034;-67
2023/12/19 02:56:18;;;;;;;38.75;17.50;;;7.30;99.90;;;;;;5046483;28;20037;-65
2023/12/19 02:58:43;;;;;;;42.97;18.10;;;7.30;99.90;;;;;;5051141;28;20102;-65
2023/12/19 03:01:09;;;;;;;45.95;20.52;;;7.20;99.90;;;;;;5051678;28;20041;-67
2023/12/19 03:03:35;;;;;;;48.42;19.48;;;7.30;99.90;;;;;;5048136;28;20483;-67
2023/12/19 03:06:00;;;;;;;35.30;15.07;;;7.30;99.90;;;;;;5051337;28;20033;-68
2023/12/19 03:08:26;;;;;;;37.08;16.05;;;7.30;99.90;;;;;;5051398;28;20045;-68
2023/12/19 03:10:52;;;;;;;40.42;16.92;;;7.30;99.90;;;;;;5048436;28;20048;-64
2023/12/19 03:13:18;;;;;;;47.33;20.67;;;7.30;99.90;;;;;;5022555;28;20107;-64
2023/12/19 03:15:43;;;;;;;44.28;17.55;;;7.30;99.90;;;;;;5051367;28;20037;-67
2023/12/19 03:18:09;;;;;;;38.13;16.58;;;7.30;99.90;;;;;;5051451;28;20102;-67
2023/12/19 03:20:35;;;;;;;41.50;17.27;;;7.30;99.90;;;;;;5037386;28;20399;-67
2023/12/19 03:23:01;;;;;;;42.38;19.02;;;7.30;99.90;;;;;;5046253;28;20040;-66
2023/12/19 03:25:27;;;;;;;42.03;19.23;;;7.40;99.90;;;;;;5050977;28;20037;-67
2023/12/19 03:27:52;;;;;;;41.75;18.65;;;7.40;99.90;;;;;;5042954;28;20029;-66
2023/12/19 03:30:18;;;;;;;48.75;21.02;;;7.40;99.90;;;;;;5050231;28;20573;-67
2023/12/19 03:32:43;;;;;;;37.63;15.63;;;7.30;99.90;;;;;;5047070;28;20072;-66
2023/12/19 03:35:11;;;;;;;41.78;16.30;;;7.30;99.90;;;;;;5047510;28;20025;-66
2023/12/19 03:37:37;;;;;;;37.78;15.80;;;7.40;99.90;;;;;;5041878;28;20029;-66
2023/12/19 03:40:04;;;;;;;50.03;21.90;;;7.40;99.90;;;;;;5050103;28;20044;-67
2023/12/19 03:42:29;;;;;;;36.70;14.98;;;7.40;99.90;;;;;;5050674;28;20392;-65
2023/12/19 03:44:55;;;;;;;41.75;17.45;;;7.40;99.90;;;;;;5044831;28;20036;-68
2023/12/19 03:47:20;;;;;;;41.78;19.60;;;7.40;99.90;;;;;;5042087;28;20037;-67
2023/12/19 03:49:46;;;;;;;42.30;19.02;;;7.40;99.90;;;;;;5050644;28;20040;-65
2023/12/19 03:52:11;;;;;;;42.72;16.83;;;7.40;99.90;;;;;;5046167;28;20044;-68
2023/12/19 03:54:37;;;;;;;42.92;19.13;;;7.40;99.90;;;;;;5042608;28;20051;-67
2023/12/19 03:57:03;;;;;;;35.47;16.50;;;7.40;99.90;;;;;;5050456;28;20029;-66
2023/12/19 03:59:28;;;;;;;40.05;17.05;;;7.40;99.90;;;;;;5050664;28;20044;-66
2023/12/19 04:01:55;;;;;;;35.28;15.55;;;7.40;99.90;;;;;;5035237;28;20068;-65
2023/12/19 04:04:20;;;;;;;38.90;15.98;;;7.40;99.90;;;;;;5047910;28;20388;-66
2023/12/19 04:06:46;;;;;;;45.63;18.55;;;7.40;99.90;;;;;;5050394;28;20040;-65
2023/12/19 04:09:12;;;;;;;38.03;16.83;;;7.50;99.90;;;;;;5044644;28;20032;-67
2023/12/19 04:11:38;;;;;;;40.58;18.27;;;7.40;99.90;;;;;;5038676;28;20124;-67
2023/12/19 04:14:05;;;;;;;46.72;20.40;;;7.50;99.90;;;;;;5049396;28;20117;-67
2023/12/19 04:16:31;;;;;;;38.78;17.55;;;7.40;99.90;;;;;;5046171;28;20041;-66
2023/12/19 04:18:57;;;;;;;35.85;14.82;;;7.50;99.90;;;;;;5039548;28;20073;-66
2023/12/19 04:21:22;;;;;;;34.85;15.27;;;7.50;99.90;;;;;;5048538;28;20041;-68
2023/12/19 04:23:48;;;;;;;31.98;12.93;;;7.50;99.90;;;;;;5049523;28;20090;-68
2023/12/19 04:26:19;;;;;;;38.25;17.88;;;7.50;99.90;;;;;;5035265;28;20033;-66
2023/12/19 04:28:44;;;;;;;32.70;14.67;;;7.40;99.90;;;;;;5050046;28;20028;-68
2023/12/19 04:31:10;;;;;;;38.15;14.52;;;7.40;99.90;;;;;;5049957;28;20838;-66
2023/12/19 04:33:35;;;;;;;36.95;15.80;;;7.40;99.90;;;;;;5050115;28;20041;-66
2023/12/19 04:36:02;;;;;;;40.75;16.40;;;7.50;99.90;;;;;;5041174;28;20033;-64
2023/12/19 04:38:28;;;;;;;33.38;14.20;;;7.40;99.90;;;;;;5048918;28;20600;-65
2023/12/19 04:40:53;;;;;;;36.75;14.95;;;7.50;99.90;;;;;;5039226;28;20033;-66
2023/12/19 04:43:19;;;;;;;35.28;15.82;;;7.40;99.90;;;;;;5044534;28;20546;-67
2023/12/19 04:45:44;;;;;;;40.67;16.92;;;7.50;99.90;;;;;;5046230;28;20384;-67
2023/12/19 04:48:10;;;;;;;39.15;15.27;;;7.50;99.90;;;;;;5050235;28;20041;-66
2023/12/19 04:50:35;;;;;;;39.97;16.23;;;7.50;99.90;;;;;;5028673;28;20041;-67
2023/12/19 04:53:01;;;;;;;39.83;16.42;;;7.60;99.90;;;;;;5037789;28;20508;-67
2023/12/19 04:55:27;;;;;;;33.42;14.57;;;7.50;99.90;;;;;;5049026;28;20442;-65
2023/12/19 04:57:52;;;;;;;36.10;15.57;;;7.50;99.90;;;;;;5046424;28;20036;-66
2023/12/19 05:00:18;;;;;;;36.80;16.15;;;7.50;99.90;;;;;;5031136;28;20116;-66
2023/12/19 05:02:44;;;;;;;42.05;16.27;;;7.50;99.90;;;;;;5049076;28;20055;-68
2023/12/19 05:05:09;;;;;;;40.58;16.73;;;7.50;99.90;;;;;;5049876;28;20044;-67
2023/12/19 05:07:35;;;;;;;36.08;15.32;;;7.50;99.90;;;;;;5049893;28;20033;-64
2023/12/19 05:10:02;;;;;;;40.83;15.93;;;7.50;99.90;;;;;;5022359;28;20090;-65
2023/12/19 05:12:27;;;;;;;35.63;16.20;;;7.50;99.90;;;;;;5049353;28;20045;-64
2023/12/19 05:14:53;;;;;;;34.90;14.73;;;7.50;99.90;;;;;;5049855;28;20037;-65
2023/12/19 05:17:18;;;;;;;36.38;14.95;;;7.50;99.90;;;;;;5039346;28;20029;-68
2023/12/19 05:19:44;;;;;;;33.35;13.75;;;7.50;99.90;;;;;;5049314;28;20044;-64
2023/12/19 05:22:10;;;;;;;36.85;13.65;;;7.50;99.90;;;;;;5051235;28;20515;-66
2023/12/19 05:24:37;;;;;;;35.22;15.55;;;7.50;99.90;;;;;;5053272;28;20551;-65
2023/12/19 05:27:04;;;;;;;32.20;14.18;;;7.60;99.90;;;;;;5044991;28;20033;-67
2023/12/19 05:29:30;;;;;;;27.73;11.48;;;7.50;99.90;;;;;;5052787;28;20466;-66
2023/12/19 05:31:57;;;;;;;29.80;13.00;;;7.50;99.90;;;;;;5031159;28;20129;-67
2023/12/19 05:34:22;;;;;;;29.55;14.45;;;7.50;99.90;;;;;;5043477;28;20033;-67
2023/12/19 05:36:48;;;;;;;33.50;14.35;;;7.50;99.90;;;;;;5052630;28;20145;-64
2023/12/19 05:39:15;;;;;;;32.45;14.48;;;7.50;99.90;;;;;;5053386;28;20487;-65
2023/12/19 05:41:41;;;;;;;35.22;15.40;;;7.50;99.90;;;;;;5046329;28;20056;-65
2023/12/19 05:44:06;;;;;;;29.02;13.13;;;7.50;99.90;;;;;;5049197;28;20679;-66
2023/12/19 05:46:32;;;;;;;31.58;13.40;;;7.50;99.90;;;;;;5031700;28;20387;-65
2023/12/19 05:48:57;;;;;;;28.90;12.40;;;7.60;99.90;;;;;;5045789;28;20507;-65
2023/12/19 05:51:23;;;;;;;30.60;12.65;;;7.50;99.90;;;;;;5020169;28;20053;-65
2023/12/19 05:53:49;;;;;;;27.10;12.55;;;7.60;99.90;;;;;;5052566;28;20033;-68
2023/12/19 05:56:15;;;;;;;26.80;12.95;;;7.50;99.90;;;;;;5041707;28;20605;-67
2023/12/19 05:58:41;;;;;;;26.92;11.07;;;7.60;99.90;;;;;;5039141;28;20499;-67
2023/12/19 06:01:06;;;;;;;28.08;12.40;;;7.60;99.90;;;;;;5052112;28;20186;-65
2023/12/19 06:03:32;;;;;;;26.23;11.32;;;7.60;99.90;;;;;;5052431;28;20044;-65
2023/12/19 06:05:58;;;;;;;27.58;12.77;;;7.50;99.90;;;;;;5044544;28;20041;-68
2023/12/19 06:08:23;;;;;;;27.85;11.95;;;7.60;99.90;;;;;;5051618;28;20048;-66
2023/12/19 06:10:51;;;;;;;25.88;10.25;;;7.50;99.90;;;;;;5052588;28;20037;-64
2023/12/19 06:13:17;;;;;;;23.27;10.73;;;7.50;99.90;;;;;;5052367;28;20059;-65
2023/12/19 06:15:42;;;;;;;24.50;10.55;;;7.50;99.90;;;;;;5049066;28;20044;-65
2023/12/19 06:18:08;;;;;;;24.08;11.27;;;7.50;99.90;;;;;;5047221;28;20052;-68
2023/12/19 06:20:34;;;;;;;24.55;11.60;;;7.60;99.90;;;;;;5052043;28;20491;-65
2023/12/19 06:23:00;;;;;;;24.33;10.15;;;7.60;99.90;;;;;;5041346;28;20033;-65
2023/12/19 06:25:25;;;;;;;27.08;11.10;;;7.50;99.90;;;;;;5036577;28;20029;-65
2023/12/19 06:27:52;;;;;;;27.08;13.18;;;7.60;99.90;;;;;;5040075;28;20463;-66
2023/12/19 06:30:18;;;;;;;22.02;10.27;;;7.60;99.90;;;;;;5044790;28;20029;-65
2023/12/19 06:32:45;;;;;;;25.38;11.50;;;7.60;99.90;;;;;;5047162;28;20087;-69
2023/12/19 06:35:11;;;;;;;19.00;8.82;;;7.60;99.90;;;;;;5047894;28;20543;-65
2023/12/19 06:37:37;;;;;;;22.10;10.73;;;7.60;99.90;;;;;;5050373;28;20033;-67
2023/12/19 06:40:04;;;;;;;25.02;11.02;;;7.70;99.90;;;;;;5043668;28;20032;-68
2023/12/19 06:42:30;;;;;;;21.05;9.57;;;7.60;99.90;;;;;;5046013;28;20079;-67
2023/12/19 06:44:55;;;;;;;22.52;10.23;;;7.70;99.90;;;;;;5047498;28;20044;-68
2023/12/19 06:47:21;;;;;;;23.52;10.85;;;7.70;99.90;;;;;;5048290;28;20029;-65
2023/12/19 06:49:46;;;;;;;19.00;9.48;;;7.70;99.90;;;;;;5041576;28;20040;-66
2023/12/19 06:52:12;;;;;;;23.60;10.45;;;7.70;99.90;;;;;;5047161;28;20056;-66
2023/12/19 06:54:38;;;;;;;19.15;8.73;;;7.80;99.90;;;;;;5051601;28;20032;-65
2023/12/19 06:57:05;;;;;;;19.67;9.25;;;7.80;99.90;;;;;;5045683;28;20098;-66
2023/12/19 06:59:34;;;;;;;22.23;9.75;;;7.80;99.90;;;;;;5047225;28;20103;-66
2023/12/19 07:02:00;;;;;;;19.48;9.43;;;7.80;99.90;;;;;;5046933;28;20039;-69
2023/12/19 07:04:26;;;;;;;18.08;9.43;;;7.80;99.90;;;;;;5044533;28;20048;-68
2023/12/19 07:06:52;;;;;;;19.80;9.25;;;7.80;99.90;;;;;;5040673;28;20069;-67
2023/12/19 07:09:18;;;;;;;22.83;11.00;;;7.80;99.90;;;;;;5048826;28;20063;-67
2023/12/19 07:11:44;;;;;;;18.98;8.93;;;7.80;99.90;;;;;;5048684;28;20491;-69
2023/12/19 07:14:09;;;;;;;20.35;9.77;;;7.80;99.90;;;;;;5037548;28;20033;-67
2023/12/19 07:16:35;;;;;;;21.58;11.05;;;7.80;99.90;;;;;;5050575;28;20396;-66
2023/12/19 07:19:01;;;;;;;20.90;10.05;;;7.80;99.90;;;;;;5051736;28;20063;-64
2023/12/19 07:21:26;;;;;;;19.95;10.27;;;7.80;99.90;;;;;;5042059;28;20408;-67
2023/12/19 07:23:53;;;;;;;15.55;8.48;;;7.80;99.90;;;;;;5045251;28;20037;-66
2023/12/19 07:26:29;;;;;;;17.67;8.35;;;7.80;99.90;;;;;;5050948;28;20064;-66
2023/12/19 07:28:59;;;;;;;20.23;9.25;;;7.80;99.90;;;;;;5048367;28;20036;-63
2023/12/19 07:31:26;;;;;;;16.75;8.52;;;7.80;99.90;;;;;;5037459;28;20041;-63
2023/12/19 07:33:55;;;;;;;13.23;6.90;;;7.90;99.90;;;;;;5050445;28;20216;-65
2023/12/19 07:36:21;;;;;;;18.08;9.55;;;7.80;99.90;;;;;;5046611;28;20048;-67
2023/12/19 07:38:47;;;;;;;18.92;9.35;;;7.90;99.90;;;;;;5039403;28;20037;-67
2023/12/19 07:41:13;;;;;;;16.95;7.72;;;7.80;99.90;;;;;;5047679;28;20120;-66
2023/12/19 07:43:39;;;;;;;14.38;7.72;;;7.80;99.90;;;;;;5050070;28;20127;-65
2023/12/19 07:46:06;;;;;;;15.93;7.72;;;7.80;99.90;;;;;;5035401;28;20037;-67
2023/12/19 07:48:32;;;;;;;16.05;8.05;;;7.80;99.90;;;;;;5050100;28;20479;-66
2023/12/19 07:50:58;;;;;;;14.75;7.57;;;7.80;99.90;;;;;;5050752;28;20037;-66
2023/12/19 07:53:25;;;;;;;16.15;7.75;;;7.90;99.90;;;;;;5050708;28;20051;-66
2023/12/19 07:55:52;;;;;;;14.63;7.00;;;7.80;99.90;;;;;;5035614;28;20490;-66
2023/12/19 07:58:18;;;;;;;16.17;7.97;;;7.90;99.90;;;;;;5048176;28;20055;-69
2023/12/19 08:00:43;;;;;;;19.17;9.20;;;7.90;99.90;;;;;;5050619;28;20045;-66
2023/12/19 08:03:09;;;;;;;13.80;7.50;;;7.90;99.90;;;;;;5042103;28;20032;-66
2023/12/19 08:05:34;;;;;;;15.35;7.55;;;7.90;99.90;;;;;;5046852;28;20041;-64
2023/12/19 08:08:00;;;;;;;17.20;7.60;;;7.90;99.90;;;;;;5050269;28;20045;-67
2023/12/19 08:10:26;;;;;;;14.95;8.23;;;7.90;99.90;;;;;;5050474;28;20558;-67
2023/12/19 08:12:52;;;;;;;13.65;6.47;;;7.90;99.90;;;;;;5039035;28;20125;-67
2023/12/19 08:15:18;;;;;;;15.57;7.93;;;7.90;99.90;;;;;;5024454;28;20476;-66
2023/12/19 08:17:43;;;;;;;15.25;7.63;;;7.90;99.90;;;;;;5049579;28;20047;-67
2023/12/19 08:20:11;;;;;;;12.38;6.68;;;7.90;99.90;;;;;;5038777;28;20056;-63
2023/12/19 08:22:37;;;;;;;15.52;7.35;;;8.00;99.90;;;;;;5048861;28;20099;-64
2023/12/19 08:25:03;;;;;;;13.82;7.13;;;8.00;99.90;;;;;;5050062;28;20496;-63
2023/12/19 08:27:34;;;;;;;11.80;6.30;;;8.00;99.90;;;;;;5045871;28;20041;-64
2023/12/19 08:30:02;;;;;;;17.02;7.75;;;8.00;99.90;;;;;;5036972;28;20041;-64
2023/12/19 08:32:29;;;;;;;14.13;7.40;;;8.00;99.90;;;;;;5049642;28;20098;-67
2023/12/19 08:34:55;;;;;;;14.05;7.78;;;8.00;99.90;;;;;;5050157;28;20048;-68
2023/12/19 08:37:22;;;;;;;15.88;7.70;;;8.00;99.90;;;;;;5042861;28;20032;-67
2023/12/19 08:39:54;;;;;;;16.83;7.97;;;8.00;99.90;;;;;;5049800;28;20065;-66
2023/12/19 08:42:19;;;;;;;18.80;8.43;;;8.10;99.90;;;;;;5047704;28;20041;-64
2023/12/19 08:44:45;;;;;;;11.85;6.38;;;8.10;99.90;;;;;;5042338;28;20106;-64
2023/12/19 08:47:10;;;;;;;15.48;7.53;;;8.10;99.90;;;;;;5032311;28;20033;-65
2023/12/19 08:49:38;;;;;;;14.75;7.43;;;8.10;99.90;;;;;;5049495;28;20045;-63
2023/12/19 08:52:04;;;;;;;17.50;7.43;;;8.10;99.90;;;;;;5045143;28;20039;-64
2023/12/19 08:54:29;;;;;;;20.15;7.95;;;8.10;99.90;;;;;;5034782;28;20028;-67
2023/12/19 08:56:55;;;;;;;18.73;9.00;;;8.20;99.90;;;;;;5039981;28;20483;-67
2023/12/19 08:59:20;;;;;;;17.95;7.82;;;8.20;99.90;;;;;;5053390;28;20048;-68
2023/12/19 09:01:46;;;;;;;14.98;7.13;;;8.20;99.90;;;;;;5054160;28;20265;-67
2023/12/19 09:04:11;;;;;;;17.58;8.23;;;8.20;99.90;;;;;;5041925;28;20522;-66
2023/12/19 09:06:37;;;;;;;13.88;7.63;;;8.20;99.90;;;;;;5044054;28;20040;-64
2023/12/19 09:09:02;;;;;;;18.83;8.70;;;8.20;99.90;;;;;;5038313;28;20037;-68
2023/12/19 09:11:28;;;;;;;18.50;8.32;;;8.30;99.90;;;;;;5037311;28;20041;-67
2023/12/19 09:13:55;;;;;;;14.57;7.43;;;8.30;99.90;;;;;;5052858;28;20049;-64
2023/12/19 09:16:20;;;;;;;18.67;8.20;;;8.30;99.90;;;;;;5052844;28;20044;-64
2023/12/19 09:18:46;;;;;;;17.38;8.18;;;8.40;99.90;;;;;;5053355;28;20040;-66
2023/12/19 09:21:12;;;;;;;13.77;7.50;;;8.30;99.90;;;;;;5040349;28;20479;-66
2023/12/19 09:23:37;;;;;;;17.02;8.45;;;8.40;99.90;;;;;;5033661;28;20041;-64
2023/12/19 09:26:03;;;;;;;15.40;7.82;;;8.40;99.90;;;;;;5047902;28;20098;-64
2023/12/19 09:28:29;;;;;;;15.68;8.18;;;8.40;99.90;;;;;;5052300;28;20562;-64
2023/12/19 09:30:55;;;;;;;17.13;8.48;;;8.40;99.90;;;;;;5047411;28;20108;-64
2023/12/19 09:33:21;;;;;;;14.45;7.65;;;8.40;99.90;;;;;;5041553;28;20103;-64
2023/12/19 09:35:46;;;;;;;13.77;7.85;;;8.40;99.90;;;;;;5047956;28;20491;-63
2023/12/19 09:38:12;;;;;;;14.60;7.85;;;8.50;99.90;;;;;;5051640;28;20514;-64
2023/12/19 09:40:38;;;;;;;17.92;8.65;;;8.50;99.90;;;;;;5047966;28;20491;-64
2023/12/19 09:43:03;;;;;;;16.75;9.05;;;8.50;99.90;;;;;;5032831;28;20041;-63
2023/12/19 09:45:29;;;;;;;18.88;9.07;;;8.50;99.90;;;;;;5043562;28;20116;-66
2023/12/19 09:47:59;;;;;;;16.95;8.45;;;8.50;99.90;;;;;;5047528;28;20094;-66
2023/12/19 09:50:27;;;;;;;19.43;8.70;;;8.50;99.90;;;;;;5035031;28;20041;-63
2023/12/19 09:52:57;;;;;;;17.70;9.18;;;8.50;99.90;;;;;;5045852;28;20452;-65
2023/12/19 09:55:25;;;;;;;18.20;9.95;;;8.50;99.90;;;;;;5048863;28;20036;-64
2023/12/19 09:57:53;;;;;;;18.08;9.40;;;8.60;99.90;;;;;;5042970;28;20480;-64
2023/12/19 10:00:19;;;;;;;17.60;10.05;;;8.60;99.90;;;;;;5039257;28;20083;-64
2023/12/19 10:02:45;;;;;;;20.35;10.10;;;8.60;99.90;;;;;;5051689;28;20041;-63
2023/12/19 10:05:11;;;;;;;22.60;10.23;;;8.60;99.90;;;;;;5052762;28;20049;-65
2023/12/19 10:07:37;;;;;;;20.80;10.30;;;8.60;99.90;;;;;;5052188;28;20041;-64
2023/12/19 10:10:06;;;;;;;20.50;10.05;;;8.60;99.90;;;;;;5045539;28;20064;-66
2023/12/19 10:12:32;;;;;;;18.55;10.10;;;8.60;99.90;;;;;;5049483;28;20055;-66
2023/12/19 10:15:13;;;;;;;18.83;10.75;;;8.60;99.90;;;;;;5052428;28;20037;-66
2023/12/19 10:17:39;;;;;;;22.00;10.13;;;8.60;99.90;;;;;;5041944;28;20114;-66
2023/12/19 10:20:09;;;;;;;20.02;10.07;;;8.70;99.90;;;;;;5051481;28;20389;-66
2023/12/19 10:22:35;;;;;;;19.47;9.97;;;8.70;99.90;;;;;;5032624;28;20172;-64
2023/12/19 10:25:00;;;;;;;19.52;9.75;;;8.70;99.90;;;;;;5036531;28;20125;-66
2023/12/19 10:27:26;;;;;;;19.73;10.43;;;8.70;99.90;;;;;;5051932;28;20110;-66
2023/12/19 10:29:51;;;;;;;21.15;10.70;;;8.70;99.90;;;;;;5049366;28;20033;-64
2023/12/19 10:32:20;;;;;;;19.77;10.38;;;8.70;99.90;;;;;;5037415;28;20045;-68
2023/12/19 10:34:46;;;;;;;19.92;10.07;;;8.80;99.90;;;;;;5045195;28;20041;-64
2023/12/19 10:37:14;;;;;;;18.77;10.23;;;8.80;99.90;;;;;;5048374;28;20452;-65
2023/12/19 10:39:41;;;;;;;23.40;10.52;;;8.80;99.90;;;;;;5042640;28;20079;-63
2023/12/19 10:42:10;;;;;;;20.42;10.52;;;8.80;99.90;;;;;;5051714;28;20060;-63
2023/12/19 10:44:39;;;;;;;23.02;11.20;;;8.80;99.90;;;;;;5051720;28;20142;-64
2023/12/19 10:47:09;;;;;;;22.58;11.18;;;8.80;99.90;;;;;;5051819;28;20060;-64
2023/12/19 10:49:38;;;;;;;18.27;9.73;;;8.80;99.90;;;;;;5036288;28;20510;-63
2023/12/19 10:52:07;;;;;;;20.70;10.52;;;8.80;99.90;;;;;;5044649;28;20044;-65
2023/12/19 10:54:37;;;;;;;21.77;10.88;;;8.80;99.90;;;;;;5050680;28;20041;-66
2023/12/19 10:57:19;;;;;;;21.35;10.20;;;8.80;99.90;;;;;;5051895;28;20037;-66
2023/12/19 11:00:13;;;;;;;19.15;10.75;;;8.90;99.90;;;;;;5049328;28;20048;-65
2023/12/19 11:03:07;;;;;;;21.80;10.57;;;8.90;99.90;;;;;;5043701;28;20041;-63
2023/12/19 11:05:47;;;;;;;21.25;10.82;;;8.90;99.90;;;;;;5044453;28;20075;-63
2023/12/19 11:08:17;;;;;;;20.33;11.00;;;8.90;99.90;;;;;;5040934;28;20045;-63
2023/12/19 11:11:14;;;;;;;19.30;10.70;;;8.90;99.90;;;;;;5033968;28;20044;-63
2023/12/19 11:13:42;;;;;;;21.30;11.38;;;8.90;99.90;;;;;;5037572;28;20039;-66
2023/12/19 11:16:32;;;;;;;22.30;11.27;;;8.90;99.90;;;;;;5032892;28;20048;-66
2023/12/19 11:19:04;;;;;;;25.10;11.68;;;8.90;99.90;;;;;;5042857;28;20488;-65
2023/12/19 11:21:46;;;;;;;29.30;12.07;;;9.00;99.90;;;;;;5044701;28;20040;-66
2023/12/19 11:24:17;;;;;;;;;;;8.90;99.90;;;;;;5036878;28;20038;-63
2023/12/19 11:27:08;;;;;;;25.63;11.80;;;8.90;99.90;;;;;;5045284;28;19924;-64
2023/12/19 11:29:50;;;;;;;26.95;12.57;;;8.90;99.90;;;;;;5047689;28;20170;-64
2023/12/19 11:32:44;;;;;;;;;;;9.00;99.90;;;;;;5041776;28;20051;-64
2023/12/19 11:35:11;;;;;;;24.27;12.45;;;9.00;99.90;;;;;;5036689;28;20027;-64
2023/12/19 11:37:43;;;;;;;24.95;12.38;;;9.00;99.90;;;;;;5038286;28;20527;-64
2023/12/19 11:40:18;;;;;;;25.13;12.65;;;9.00;99.90;;;;;;5042243;28;20037;-66
2023/12/19 11:42:45;;;;;;;24.13;11.57;;;9.00;99.90;;;;;;5043560;28;20037;-63
2023/12/19 11:45:16;;;;;;;26.70;12.43;;;9.00;99.90;;;;;;5050368;28;20075;-66
2023/12/19 11:47:42;;;;;;;26.40;13.32;;;9.00;99.90;;;;;;5049987;28;20037;-66
2023/12/19 11:50:07;;;;;;;25.83;12.30;;;9.00;99.90;;;;;;5037420;28;20449;-64
2023/12/19 11:52:37;;;;;;;22.83;11.95;;;9.10;99.90;;;;;;5044034;28;20037;-63
2023/12/19 11:55:05;;;;;;;25.10;13.02;;;9.10;99.90;;;;;;5049768;28;20029;-64
2023/12/19 11:57:32;;;;;;;24.83;12.38;;;9.10;99.90;;;;;;5039494;28;20036;-63
2023/12/19 11:59:59;;;;;;;27.10;12.23;;;9.10;99.90;;;;;;5033675;28;20037;-63
2023/12/19 12:02:34;;;;;;;22.90;12.10;;;9.10;99.90;;;;;;5048216;28;20508;-66
2023/12/19 12:05:09;;;;;;;23.17;12.43;;;9.10;99.90;;;;;;5050645;28;20040;-66
2023/12/19 12:07:40;;;;;;;23.63;12.45;;;9.10;99.90;;;;;;5046982;28;20127;-66
2023/12/19 12:10:09;;;;;;;22.80;11.95;;;9.10;99.90;;;;;;5046209;28;20094;-64
2023/12/19 12:12:35;;;;;;;23.65;12.48;;;9.20;99.90;;;;;;5046149;28;20518;-65
2023/12/19 12:15:08;;;;;;;21.02;12.00;;;9.20;99.90;;;;;;5034518;28;20034;-66
2023/12/19 12:17:34;;;;;;;23.33;11.77;;;9.20;99.90;;;;;;5049991;28;20041;-65
2023/12/19 12:20:00;;;;;;;23.42;12.65;;;9.20;99.90;;;;;;5050482;28;20527;-66
2023/12/19 12:22:26;;;;;;;23.98;12.18;;;9.20;99.90;;;;;;5044779;28;20076;-65
2023/12/19 12:24:54;;;;;;;21.45;11.88;;;9.20;99.90;;;;;;5047939;28;20033;-65
2023/12/19 12:27:20;;;;;;;22.77;10.93;;;9.30;99.90;;;;;;5050460;28;20037;-66
2023/12/19 12:29:46;;;;;;;17.60;10.00;;;9.20;99.90;;;;;;5047629;28;20448;-66
2023/12/19 12:32:12;;;;;;;21.80;11.55;;;9.30;99.90;;;;;;5052344;28;20465;-65
2023/12/19 12:34:38;;;;;;;18.77;10.82;;;9.30;99.90;;;;;;5046715;28;20402;-66
2023/12/19 12:37:04;;;;;;;16.65;9.55;;;9.30;99.90;;;;;;5050231;28;20047;-65
2023/12/19 12:39:30;;;;;;;18.65;10.38;;;9.30;99.90;;;;;;5053924;28;20040;-66